Time;durP1;ratioP1;P1;durP2;ratioP2;P2;SDS_P1;SDS_P2;PMS_P1;PMS_P2;Temp;Humidity;BMP_temperature;BMP_pressure;BME280_temperature;BME280_humidity;BME280_pressure;Samples;Min_cycle;Max_cycle;Signal;HPM_P1;HPM_P2
2023/09/18 00:01:36;;;;;;;6.30;3.10;;;;;;;;;;10560484;28;20448;-77
2023/09/18 00:06:39;;;;;;;8.20;3.33;;;;;;;;;;10552891;28;20430;-79
2023/09/18 00:11:43;;;;;;;4.90;3.20;;;;;;;;;;10546312;28;20487;-77
2023/09/18 00:16:46;;;;;;;7.28;3.58;;;;;;;;;;10539510;28;20427;-78
2023/09/18 00:22:01;;;;;;;7.03;3.40;;;;;;;;;;10541392;28;20421;-78
2023/09/18 00:27:05;;;;;;;6.22;2.70;;;;;;;;;;10537469;28;20445;-78
2023/09/18 00:32:08;;;;;;;5.65;3.28;;;;;;;;;;10534290;28;20455;-79
2023/09/18 00:37:12;;;;;;;8.93;3.22;;;;;;;;;;10518963;28;20423;-79
2023/09/18 00:42:17;;;;;;;4.40;2.92;;;;;;;;;;10531178;28;20879;-78
2023/09/18 00:47:20;;;;;;;5.73;3.10;;;;;;;;;;10529620;28;20450;-78
2023/09/18 00:52:24;;;;;;;5.72;2.83;;;;;;;;;;10509388;28;20443;-77
2023/09/18 00:57:29;;;;;;;7.13;3.25;;;;;;;;;;10527426;28;20425;-79
2023/09/18 01:02:31;;;;;;;5.47;2.75;;;;;;;;;;10537381;28;20451;-78
2023/09/18 01:07:34;;;;;;;6.10;3.20;;;;;;;;;;10533687;28;20415;-79
2023/09/18 01:12:45;;;;;;;6.65;3.00;;;;;;;;;;10533087;28;20983;-78
2023/09/18 01:17:48;;;;;;;7.15;3.08;;;;;;;;;;10541272;28;20809;-78
2023/09/18 01:22:52;;;;;;;6.10;3.03;;;;;;;;;;10538566;27;20499;-80
2023/09/18 01:27:54;;;;;;;7.60;3.05;;;;;;;;;;10539274;28;20473;-79
2023/09/18 01:32:57;;;;;;;5.72;3.17;;;;;;;;;;10541431;28;20426;-79
2023/09/18 01:38:03;;;;;;;5.50;2.93;;;;;;;;;;10535378;28;20430;-79
2023/09/18 01:43:06;;;;;;;5.65;2.83;;;;;;;;;;10536270;28;20410;-79
2023/09/18 01:48:09;;;;;;;5.80;2.80;;;;;;;;;;10528558;28;20458;-79
2023/09/18 01:53:13;;;;;;;6.17;3.07;;;;;;;;;;10540818;28;20876;-79
2023/09/18 01:58:16;;;;;;;5.37;3.23;;;;;;;;;;10535737;28;20429;-79
2023/09/18 02:03:20;;;;;;;6.57;2.90;;;;;;;;;;10530117;28;20424;-79
2023/09/18 02:08:44;;;;;;;7.80;2.70;;;;;;;;;;10525906;28;20429;-78
2023/09/18 02:13:47;;;;;;;7.20;2.90;;;;;;;;;;10538049;28;20600;-78
2023/09/18 02:18:50;;;;;;;5.30;2.90;;;;;;;;;;10534530;28;20832;-78
2023/09/18 02:23:54;;;;;;;5.40;2.80;;;;;;;;;;10531019;28;20520;-78
2023/09/18 02:28:59;;;;;;;6.33;2.80;;;;;;;;;;10523576;28;21139;-79
2023/09/18 02:34:02;;;;;;;5.30;2.60;;;;;;;;;;10526334;28;20450;-79
2023/09/18 02:39:06;;;;;;;4.97;2.75;;;;;;;;;;10527242;28;20918;-79
2023/09/18 02:44:09;;;;;;;6.68;2.90;;;;;;;;;;10525977;28;20564;-77
2023/09/18 02:49:11;;;;;;;6.55;3.03;;;;;;;;;;10522356;28;20425;-78
2023/09/18 02:54:15;;;;;;;6.13;2.92;;;;;;;;;;10524556;28;20993;-78
2023/09/18 02:59:18;;;;;;;6.38;3.03;;;;;;;;;;10530150;28;21135;-78
2023/09/18 03:04:21;;;;;;;6.97;3.07;;;;;;;;;;10530874;28;20422;-78
2023/09/18 03:09:25;;;;;;;6.32;2.90;;;;;;;;;;10524275;28;20430;-78
2023/09/18 03:14:27;;;;;;;6.40;3.00;;;;;;;;;;10527607;28;20509;-77
2023/09/18 03:19:30;;;;;;;7.32;2.92;;;;;;;;;;10530316;28;20432;-78
2023/09/18 03:24:34;;;;;;;5.70;2.85;;;;;;;;;;10517119;28;20983;-78
2023/09/18 03:29:37;;;;;;;6.32;3.00;;;;;;;;;;10523619;28;20483;-76
2023/09/18 03:34:40;;;;;;;8.20;3.58;;;;;;;;;;10531964;28;20479;-77
2023/09/18 03:39:46;;;;;;;5.95;3.20;;;;;;;;;;10527251;28;20781;-78
2023/09/18 03:44:49;;;;;;;7.22;3.20;;;;;;;;;;10523612;28;20427;-78
2023/09/18 03:49:52;;;;;;;6.47;3.03;;;;;;;;;;10518997;28;20797;-79
2023/09/18 03:54:56;;;;;;;6.13;3.15;;;;;;;;;;10527107;28;20417;-78
2023/09/18 03:59:58;;;;;;;5.63;3.05;;;;;;;;;;10525708;28;20611;-78
2023/09/18 04:05:01;;;;;;;7.78;3.30;;;;;;;;;;10528359;28;20504;-78
2023/09/18 04:10:06;;;;;;;10.43;3.60;;;;;;;;;;10526819;28;20426;-77
2023/09/18 04:15:09;;;;;;;5.63;3.27;;;;;;;;;;10526134;28;20855;-78
2023/09/18 04:20:12;;;;;;;7.90;3.50;;;;;;;;;;10515001;28;20441;-78
2023/09/18 04:25:16;;;;;;;8.90;3.45;;;;;;;;;;10522290;28;21026;-78
2023/09/18 04:30:20;;;;;;;7.38;3.15;;;;;;;;;;10536329;28;20440;-79
2023/09/18 04:35:25;;;;;;;7.68;3.00;;;;;;;;;;10539300;28;20461;-78
2023/09/18 04:40:31;;;;;;;5.93;2.85;;;;;;;;;;10526922;28;20423;-78
2023/09/18 04:45:34;;;;;;;8.03;2.73;;;;;;;;;;10539802;28;20426;-77
2023/09/18 04:50:37;;;;;;;7.82;3.10;;;;;;;;;;10527316;28;20409;-77
2023/09/18 04:55:41;;;;;;;6.95;3.10;;;;;;;;;;10529321;28;20821;-78
2023/09/18 05:00:44;;;;;;;8.20;3.42;;;;;;;;;;10535613;28;20445;-77
2023/09/18 05:05:46;;;;;;;7.70;3.65;;;;;;;;;;10525531;28;20841;-78
2023/09/18 05:10:50;;;;;;;7.17;3.50;;;;;;;;;;10526705;28;20404;-79
2023/09/18 05:15:53;;;;;;;7.60;3.63;;;;;;;;;;10535118;28;20934;-78
2023/09/18 05:20:56;;;;;;;5.55;3.25;;;;;;;;;;10523806;28;20902;-77
2023/09/18 05:26:00;;;;;;;7.45;3.70;;;;;;;;;;10528411;28;20417;-78
2023/09/18 05:31:03;;;;;;;9.00;3.93;;;;;;;;;;10523625;28;20585;-78
2023/09/18 05:36:06;;;;;;;8.73;3.90;;;;;;;;;;10498160;28;20490;-78
2023/09/18 05:41:10;;;;;;;10.93;3.60;;;;;;;;;;10510308;28;20410;-78
2023/09/18 05:46:13;;;;;;;8.57;3.60;;;;;;;;;;10535996;28;20932;-78
2023/09/18 05:51:16;;;;;;;7.78;3.65;;;;;;;;;;10529473;28;20429;-78
2023/09/18 05:56:20;;;;;;;9.05;3.65;;;;;;;;;;10541374;28;20509;-79
2023/09/18 06:01:23;;;;;;;10.35;3.78;;;;;;;;;;10528966;28;20443;-78
2023/09/18 06:06:26;;;;;;;10.57;3.58;;;;;;;;;;10524495;28;20951;-78
2023/09/18 06:11:30;;;;;;;6.85;3.55;;;;;;;;;;10534250;28;20448;-78
2023/09/18 06:16:33;;;;;;;10.00;3.55;;;;;;;;;;10522708;28;20475;-76
2023/09/18 06:21:35;;;;;;;8.70;3.73;;;;;;;;;;10526577;28;20853;-77
2023/09/18 06:26:40;;;;;;;11.20;3.58;;;;;;;;;;10531085;28;20988;-78
2023/09/18 06:31:42;;;;;;;8.82;4.03;;;;;;;;;;10528488;28;20421;-77
2023/09/18 06:36:45;;;;;;;9.48;3.58;;;;;;;;;;10533627;28;20431;-77
2023/09/18 06:41:49;;;;;;;9.80;3.83;;;;;;;;;;10530641;28;20453;-78
2023/09/18 06:46:53;;;;;;;10.23;3.90;;;;;;;;;;10523566;28;20499;-77
2023/09/18 06:51:55;;;;;;;7.75;3.60;;;;;;;;;;10528500;28;20787;-78
2023/09/18 06:56:59;;;;;;;8.10;3.70;;;;;;;;;;10528706;28;20487;-76
2023/09/18 07:02:03;;;;;;;8.05;3.60;;;;;;;;;;10528122;28;20933;-77
2023/09/18 07:07:05;;;;;;;7.77;3.50;;;;;;;;;;10525498;28;21001;-78
2023/09/18 07:12:11;;;;;;;7.68;3.42;;;;;;;;;;10527957;28;20861;-80
2023/09/18 07:17:13;;;;;;;11.40;3.65;;;;;;;;;;10517836;28;20498;-79
2023/09/18 07:22:16;;;;;;;7.20;3.60;;;;;;;;;;10531383;28;21046;-77
2023/09/18 07:27:20;;;;;;;8.63;3.80;;;;;;;;;;10518951;28;20521;-80
2023/09/18 07:32:24;;;;;;;9.95;3.88;;;;;;;;;;10527011;28;20436;-79
2023/09/18 07:37:39;;;;;;;8.52;3.53;;;;;;;;;;10517921;28;20402;-80
2023/09/18 07:42:44;;;;;;;9.10;4.27;;;;;;;;;;10524439;28;20433;-79
2023/09/18 07:47:47;;;;;;;9.15;3.80;;;;;;;;;;10512680;28;20469;-79
2023/09/18 07:52:49;;;;;;;5.60;3.80;;;;;;;;;;10517346;28;20416;-80
2023/09/18 07:57:53;;;;;;;7.78;4.15;;;;;;;;;;10513535;28;20429;-80
2023/09/18 08:02:58;;;;;;;9.30;4.10;;;;;;;;;;10520410;28;20901;-79
2023/09/18 08:08:04;;;;;;;7.93;3.80;;;;;;;;;;10520465;28;20775;-79
2023/09/18 08:13:08;;;;;;;9.70;3.80;;;;;;;;;;10525792;28;20539;-80
2023/09/18 08:18:13;;;;;;;9.30;3.58;;;;;;;;;;10520422;28;20422;-80
2023/09/18 08:23:16;;;;;;;6.57;3.47;;;;;;;;;;10520141;28;20979;-80
2023/09/18 08:28:20;;;;;;;8.60;3.70;;;;;;;;;;10514679;28;20766;-78
2023/09/18 08:33:22;;;;;;;6.20;3.65;;;;;;;;;;10517039;28;21277;-79
2023/09/18 08:38:25;;;;;;;8.25;3.50;;;;;;;;;;10516403;28;20429;-79
2023/09/18 08:43:30;;;;;;;8.02;3.80;;;;;;;;;;10523634;28;20454;-79
2023/09/18 08:48:36;;;;;;;10.40;4.00;;;;;;;;;;10514561;28;20441;-79
2023/09/18 08:53:39;;;;;;;7.72;4.05;;;;;;;;;;10516499;28;20437;-78
2023/09/18 08:58:44;;;;;;;5.57;3.80;;;;;;;;;;10521920;28;20416;-78
2023/09/18 09:03:46;;;;;;;8.60;3.92;;;;;;;;;;10520154;28;20427;-77
2023/09/18 09:08:50;;;;;;;7.38;4.10;;;;;;;;;;10532355;28;20481;-78
2023/09/18 09:14:09;;;;;;;10.13;4.20;;;;;;;;;;10528242;28;20426;-77
2023/09/18 09:19:12;;;;;;;8.98;3.90;;;;;;;;;;10532250;28;20429;-78
2023/09/18 09:24:15;;;;;;;9.05;3.67;;;;;;;;;;10526835;28;20446;-78
2023/09/18 09:29:20;;;;;;;9.80;3.53;;;;;;;;;;10530719;28;21167;-79
2023/09/18 09:34:29;;;;;;;8.52;3.83;;;;;;;;;;10530545;28;20482;-79
2023/09/18 09:39:31;;;;;;;8.98;3.72;;;;;;;;;;10529604;28;20436;-78
2023/09/18 09:44:36;;;;;;;8.93;3.80;;;;;;;;;;10520073;28;20441;-78
2023/09/18 09:49:46;;;;;;;11.57;4.07;;;;;;;;;;10526929;28;20435;-78
2023/09/18 09:54:49;;;;;;;10.77;3.80;;;;;;;;;;10527373;28;20485;-78
2023/09/18 09:59:54;;;;;;;13.75;4.50;;;;;;;;;;10524316;28;20428;-79
2023/09/18 10:04:57;;;;;;;9.23;3.90;;;;;;;;;;10530258;28;20428;-78
2023/09/18 10:10:01;;;;;;;9.65;3.60;;;;;;;;;;10530007;28;20422;-78
2023/09/18 10:15:09;;;;;;;10.48;3.83;;;;;;;;;;10520629;28;20474;-78
2023/09/18 10:20:19;;;;;;;8.65;3.10;;;;;;;;;;10530140;28;20916;-78
2023/09/18 10:25:23;;;;;;;9.63;3.60;;;;;;;;;;10526058;28;20495;-78
2023/09/18 10:30:28;;;;;;;10.05;3.20;;;;;;;;;;10525437;28;20938;-78
2023/09/18 10:35:31;;;;;;;9.05;3.08;;;;;;;;;;10523898;28;21254;-79
2023/09/18 10:40:35;;;;;;;9.88;3.20;;;;;;;;;;10529307;28;20615;-78
2023/09/18 10:45:40;;;;;;;9.98;3.22;;;;;;;;;;10527810;28;20444;-79
2023/09/18 10:50:43;;;;;;;10.05;2.75;;;;;;;;;;10518917;28;20750;-78
2023/09/18 10:55:46;;;;;;;7.37;2.40;;;;;;;;;;10525170;28;20440;-78
2023/09/18 11:00:50;;;;;;;11.83;2.97;;;;;;;;;;10523201;28;20430;-77
2023/09/18 11:06:06;;;;;;;12.07;2.72;;;;;;;;;;10521859;28;20489;-78
2023/09/18 11:11:12;;;;;;;11.00;3.03;;;;;;;;;;10537421;28;20503;-78
2023/09/18 11:16:35;;;;;;;11.75;2.90;;;;;;;;;;10530081;28;20515;-79
2023/09/18 11:21:38;;;;;;;11.65;2.92;;;;;;;;;;10525730;28;20423;-79
2023/09/18 11:26:42;;;;;;;6.30;1.80;;;;;;;;;;10516267;28;20427;-78
2023/09/18 11:31:47;;;;;;;13.17;2.63;;;;;;;;;;10519213;28;20796;-79
2023/09/18 11:36:51;;;;;;;10.80;2.40;;;;;;;;;;10525475;28;20487;-79
2023/09/18 11:42:07;;;;;;;7.05;1.60;;;;;;;;;;10534165;28;20912;-78
2023/09/18 11:47:18;;;;;;;7.25;2.10;;;;;;;;;;10526244;28;20426;-79
2023/09/18 11:52:21;;;;;;;5.18;1.52;;;;;;;;;;10504592;28;20994;-79
2023/09/18 11:57:24;;;;;;;6.32;1.83;;;;;;;;;;10529933;28;20888;-80
2023/09/18 12:02:34;;;;;;;8.33;1.60;;;;;;;;;;10518254;28;21123;-80
2023/09/18 12:07:38;;;;;;;7.25;1.73;;;;;;;;;;10526028;28;20517;-81
2023/09/18 12:12:43;;;;;;;5.18;1.38;;;;;;;;;;10516359;28;20436;-80
2023/09/18 12:17:47;;;;;;;5.18;1.23;;;;;;;;;;10514935;28;20471;-80
2023/09/18 12:22:51;;;;;;;4.35;1.38;;;;;;;;;;10520367;28;20453;-80
2023/09/18 12:27:55;;;;;;;5.80;1.40;;;;;;;;;;10515728;28;20431;-79
2023/09/18 12:33:00;;;;;;;2.90;1.20;;;;;;;;;;10507475;28;20514;-79
2023/09/18 12:38:14;;;;;;;3.47;1.42;;;;;;;;;;10516693;28;20426;-79
2023/09/18 12:43:17;;;;;;;2.95;1.30;;;;;;;;;;10515539;28;20426;-79
2023/09/18 12:48:21;;;;;;;3.38;1.60;;;;;;;;;;10518963;28;20539;-78
2023/09/18 12:53:24;;;;;;;6.90;1.70;;;;;;;;;;10531542;28;20898;-78
2023/09/18 12:58:26;;;;;;;2.95;1.00;;;;;;;;;;10530521;28;20433;-77
2023/09/18 13:03:30;;;;;;;7.65;1.42;;;;;;;;;;10530487;28;20514;-80
2023/09/18 13:08:33;;;;;;;5.43;1.33;;;;;;;;;;10532654;28;20430;-82
2023/09/18 13:13:36;;;;;;;2.95;1.08;;;;;;;;;;10528193;28;20519;-84
2023/09/18 13:18:40;;;;;;;5.10;1.67;;;;;;;;;;10526289;28;21090;-80
2023/09/18 13:23:43;;;;;;;4.30;1.30;;;;;;;;;;10524115;28;20445;-81
2023/09/18 13:28:45;;;;;;;5.07;1.48;;;;;;;;;;10520633;28;20558;-81
2023/09/18 13:33:49;;;;;;;4.13;1.57;;;;;;;;;;10523630;28;20526;-80
2023/09/18 13:38:55;;;;;;;5.85;1.65;;;;;;;;;;10527110;28;20453;-82
2023/09/18 13:43:58;;;;;;;3.08;1.10;;;;;;;;;;10526384;28;20950;-80
2023/09/18 13:49:03;;;;;;;4.20;1.20;;;;;;;;;;10521028;28;20430;-79
2023/09/18 13:54:07;;;;;;;5.78;1.60;;;;;;;;;;10525276;28;20463;-79
2023/09/18 13:59:11;;;;;;;3.72;1.40;;;;;;;;;;10518267;28;20424;-79
2023/09/18 14:04:16;;;;;;;4.80;1.30;;;;;;;;;;10525299;28;20512;-79
2023/09/18 14:09:19;;;;;;;4.15;1.40;;;;;;;;;;10514443;28;20432;-79
2023/09/18 14:14:23;;;;;;;3.90;1.47;;;;;;;;;;10524160;28;20413;-80
2023/09/18 14:19:27;;;;;;;4.07;1.30;;;;;;;;;;10519899;28;20502;-78
2023/09/18 14:24:29;;;;;;;3.13;1.40;;;;;;;;;;10528704;28;20602;-80
2023/09/18 14:29:33;;;;;;;5.10;1.40;;;;;;;;;;10522698;28;20977;-78
2023/09/18 14:34:38;;;;;;;3.95;1.60;;;;;;;;;;10520557;28;20934;-81
2023/09/18 14:39:41;;;;;;;3.60;1.50;;;;;;;;;;10532310;28;20479;-80
2023/09/18 14:44:46;;;;;;;3.60;1.27;;;;;;;;;;10530218;28;20537;-80
2023/09/18 14:49:51;;;;;;;5.05;1.67;;;;;;;;;;10530117;28;20420;-80
2023/09/18 14:54:53;;;;;;;3.30;1.50;;;;;;;;;;10534228;28;20524;-81
2023/09/18 14:59:56;;;;;;;3.05;1.40;;;;;;;;;;10522417;28;20521;-80
2023/09/18 15:05:00;;;;;;;3.05;1.10;;;;;;;;;;10536816;28;20428;-80
2023/09/18 15:10:05;;;;;;;2.17;0.90;;;;;;;;;;10539633;28;20416;-78
2023/09/18 15:15:08;;;;;;;4.18;1.17;;;;;;;;;;10550141;28;20420;-79
2023/09/18 15:20:12;;;;;;;1.98;1.10;;;;;;;;;;10551467;28;20418;-80
2023/09/18 15:25:16;;;;;;;3.67;1.10;;;;;;;;;;10547961;28;20439;-80
2023/09/18 15:30:19;;;;;;;2.78;1.17;;;;;;;;;;10550234;28;20504;-79
2023/09/18 15:35:24;;;;;;;3.65;1.20;;;;;;;;;;10543786;28;20426;-81
2023/09/18 15:40:27;;;;;;;3.13;1.30;;;;;;;;;;10556189;28;20415;-80
2023/09/18 15:45:29;;;;;;;3.60;1.10;;;;;;;;;;10532002;28;20452;-80
2023/09/18 15:50:33;;;;;;;3.15;1.20;;;;;;;;;;10531903;28;20449;-79
2023/09/18 15:55:40;;;;;;;4.55;1.80;;;;;;;;;;10534270;28;20434;-80
2023/09/18 16:00:43;;;;;;;4.27;1.50;;;;;;;;;;10532890;28;20412;-79
2023/09/18 16:05:51;;;;;;;2.85;1.35;;;;;;;;;;10534352;28;20933;-80
2023/09/18 16:10:54;;;;;;;2.23;0.93;;;;;;;;;;10526800;28;20424;-78
2023/09/18 16:15:58;;;;;;;3.08;1.10;;;;;;;;;;10517367;28;20431;-78
2023/09/18 16:21:02;;;;;;;1.33;0.70;;;;;;;;;;10532031;28;20452;-78
2023/09/18 16:26:05;;;;;;;2.90;1.20;;;;;;;;;;10540208;28;20433;-78
2023/09/18 16:31:08;;;;;;;1.58;0.80;;;;;;;;;;10527417;28;20844;-79
2023/09/18 16:36:12;;;;;;;3.00;0.80;;;;;;;;;;10533048;28;20432;-78
2023/09/18 16:41:15;;;;;;;2.35;0.93;;;;;;;;;;10533181;28;20449;-79
2023/09/18 16:46:18;;;;;;;1.17;0.73;;;;;;;;;;10528879;28;20429;-79
2023/09/18 16:51:22;;;;;;;2.45;0.77;;;;;;;;;;10536085;28;20430;-79
2023/09/18 16:56:25;;;;;;;3.00;1.23;;;;;;;;;;10525963;28;20428;-78
2023/09/18 17:01:27;;;;;;;3.85;1.05;;;;;;;;;;10527552;28;20508;-79
2023/09/18 17:06:34;;;;;;;1.42;0.90;;;;;;;;;;10528925;28;20660;-80
2023/09/18 17:11:37;;;;;;;2.92;1.20;;;;;;;;;;10527979;28;21311;-79
2023/09/18 17:16:40;;;;;;;3.08;1.17;;;;;;;;;;10520037;28;20901;-80
2023/09/18 17:21:44;;;;;;;2.33;1.00;;;;;;;;;;10530879;28;20488;-80
2023/09/18 17:26:46;;;;;;;1.73;0.85;;;;;;;;;;10543975;27;20851;-80
2023/09/18 17:31:49;;;;;;;2.87;1.20;;;;;;;;;;10532316;28;20825;-80
2023/09/18 17:36:55;;;;;;;1.83;1.10;;;;;;;;;;10526659;28;20441;-79
2023/09/18 17:41:58;;;;;;;2.15;0.82;;;;;;;;;;10529965;28;20508;-79
2023/09/18 17:47:02;;;;;;;2.50;1.17;;;;;;;;;;10526426;28;20762;-80
2023/09/18 17:52:09;;;;;;;3.38;1.30;;;;;;;;;;10525573;28;20429;-79
2023/09/18 17:57:11;;;;;;;2.72;1.25;;;;;;;;;;10531744;28;20980;-80
2023/09/18 18:02:14;;;;;;;4.03;1.17;;;;;;;;;;10525422;28;20517;-81
2023/09/18 18:07:19;;;;;;;2.87;1.27;;;;;;;;;;10527550;28;20426;-78
2023/09/18 18:12:22;;;;;;;4.20;1.30;;;;;;;;;;10529197;28;20507;-79
2023/09/18 18:17:25;;;;;;;1.80;0.95;;;;;;;;;;10530713;28;20460;-81
2023/09/18 18:22:29;;;;;;;3.80;1.20;;;;;;;;;;10539231;28;20421;-81
2023/09/18 18:27:34;;;;;;;4.17;1.67;;;;;;;;;;10528780;28;20472;-80
2023/09/18 18:32:36;;;;;;;3.07;1.23;;;;;;;;;;10531127;28;20471;-81
2023/09/18 18:37:41;;;;;;;3.45;1.30;;;;;;;;;;10529914;28;20438;-81
2023/09/18 18:42:46;;;;;;;2.50;1.50;;;;;;;;;;10524328;28;20429;-81
2023/09/18 18:47:52;;;;;;;4.53;2.00;;;;;;;;;;10527012;28;20432;-81
2023/09/18 18:52:57;;;;;;;5.78;1.50;;;;;;;;;;10531727;28;20425;-80
2023/09/18 18:57:59;;;;;;;4.85;2.13;;;;;;;;;;10528488;28;20469;-81
2023/09/18 19:03:04;;;;;;;2.80;1.63;;;;;;;;;;10529540;28;21008;-80
2023/09/18 19:08:08;;;;;;;4.63;1.58;;;;;;;;;;10527598;28;20524;-81
2023/09/18 19:13:12;;;;;;;5.03;1.50;;;;;;;;;;10530047;28;20586;-81
2023/09/18 19:18:15;;;;;;;3.47;1.42;;;;;;;;;;10533856;28;20414;-81
2023/09/18 19:23:19;;;;;;;1.85;0.88;;;;;;;;;;10529110;28;20489;-81
2023/09/18 19:28:23;;;;;;;2.92;1.42;;;;;;;;;;10524261;28;20450;-81
2023/09/18 19:33:27;;;;;;;3.00;1.38;;;;;;;;;;10530660;28;20423;-81
2023/09/18 19:38:31;;;;;;;3.53;1.63;;;;;;;;;;10528427;28;20418;-81
2023/09/18 19:43:34;;;;;;;3.90;1.20;;;;;;;;;;10536025;28;21414;-81
2023/09/18 19:48:37;;;;;;;2.92;1.42;;;;;;;;;;10536533;28;20433;-81
2023/09/18 19:53:41;;;;;;;2.10;1.13;;;;;;;;;;10527668;28;20430;-80
2023/09/18 19:58:45;;;;;;;2.63;1.40;;;;;;;;;;10531458;28;20426;-80
2023/09/18 20:03:48;;;;;;;4.32;1.38;;;;;;;;;;10529439;28;20485;-81
2023/09/18 20:08:54;;;;;;;2.58;1.30;;;;;;;;;;10537390;28;20451;-81
2023/09/18 20:13:57;;;;;;;2.97;1.10;;;;;;;;;;10522360;28;20433;-80
2023/09/18 20:19:01;;;;;;;3.35;1.80;;;;;;;;;;10519791;28;20431;-80
2023/09/18 20:24:06;;;;;;;2.80;1.60;;;;;;;;;;10523259;28;20457;-79
2023/09/18 20:29:08;;;;;;;2.63;1.40;;;;;;;;;;10519105;28;20425;-79
2023/09/18 20:34:12;;;;;;;4.40;1.63;;;;;;;;;;10523901;28;20483;-79
2023/09/18 20:39:17;;;;;;;2.95;1.30;;;;;;;;;;10518554;28;20444;-78
2023/09/18 20:44:22;;;;;;;2.73;1.33;;;;;;;;;;10512331;28;20420;-79
2023/09/18 20:49:25;;;;;;;3.38;1.30;;;;;;;;;;10514185;28;20459;-78
2023/09/18 20:54:29;;;;;;;2.13;1.00;;;;;;;;;;10516910;28;20512;-79
2023/09/18 20:59:31;;;;;;;2.88;1.00;;;;;;;;;;10516867;28;20502;-78
2023/09/18 21:04:35;;;;;;;2.35;1.10;;;;;;;;;;10508758;28;20531;-79
2023/09/18 21:09:40;;;;;;;2.47;1.05;;;;;;;;;;10525245;28;20483;-80
2023/09/18 21:14:43;;;;;;;3.57;1.50;;;;;;;;;;10531346;28;20429;-79
2023/09/18 21:19:45;;;;;;;2.80;1.13;;;;;;;;;;10532574;28;20427;-77
2023/09/18 21:24:50;;;;;;;3.40;1.42;;;;;;;;;;10531722;28;20531;-77
2023/09/18 21:29:53;;;;;;;1.93;0.80;;;;;;;;;;10528304;28;20917;-78
2023/09/18 21:34:56;;;;;;;2.70;1.10;;;;;;;;;;10528839;28;20411;-78
2023/09/18 21:40:00;;;;;;;3.70;1.23;;;;;;;;;;10537974;28;20822;-77
2023/09/18 21:45:03;;;;;;;2.35;1.30;;;;;;;;;;10530642;28;20421;-78
2023/09/18 21:50:07;;;;;;;2.25;1.10;;;;;;;;;;10529996;27;20493;-78
2023/09/18 21:55:11;;;;;;;3.88;1.40;;;;;;;;;;10534282;28;20429;-79
2023/09/18 22:00:16;;;;;;;2.45;1.17;;;;;;;;;;10535596;28;20440;-78
2023/09/18 22:05:19;;;;;;;2.13;1.20;;;;;;;;;;10528817;28;20975;-77
2023/09/18 22:10:23;;;;;;;1.98;1.10;;;;;;;;;;10530249;28;20447;-77
2023/09/18 22:15:26;;;;;;;1.95;1.02;;;;;;;;;;10523432;28;20457;-78
2023/09/18 22:20:29;;;;;;;3.07;1.10;;;;;;;;;;10527209;28;20897;-78
2023/09/18 22:25:36;;;;;;;3.55;1.30;;;;;;;;;;10527851;28;20506;-78
2023/09/18 22:30:40;;;;;;;1.50;0.90;;;;;;;;;;10528757;28;20953;-77
2023/09/18 22:35:43;;;;;;;2.60;1.17;;;;;;;;;;10519649;28;20492;-77
2023/09/18 22:40:46;;;;;;;3.50;1.50;;;;;;;;;;10530009;28;20509;-78
2023/09/18 22:46:08;;;;;;;1.40;0.75;;;;;;;;;;10530865;28;20509;-79
2023/09/18 22:51:29;;;;;;;3.28;0.95;;;;;;;;;;10539074;28;20434;-77
2023/09/18 22:56:33;;;;;;;1.92;1.13;;;;;;;;;;10535069;28;20433;-77
2023/09/18 23:01:36;;;;;;;2.55;1.10;;;;;;;;;;10526422;28;20513;-78
2023/09/18 23:06:41;;;;;;;4.77;1.00;;;;;;;;;;10528139;28;20425;-77
2023/09/18 23:11:46;;;;;;;2.20;1.00;;;;;;;;;;10535560;28;20571;-77
2023/09/18 23:16:48;;;;;;;2.60;1.10;;;;;;;;;;10529314;28;20520;-78
2023/09/18 23:21:51;;;;;;;2.70;1.23;;;;;;;;;;10528558;28;20446;-78
2023/09/18 23:26:56;;;;;;;3.90;1.20;;;;;;;;;;10524225;28;20439;-78
2023/09/18 23:32:00;;;;;;;2.40;1.00;;;;;;;;;;10524126;28;20445;-77
2023/09/18 23:37:03;;;;;;;1.92;0.90;;;;;;;;;;10535439;28;20467;-79
2023/09/18 23:42:07;;;;;;;1.35;0.77;;;;;;;;;;10527884;28;20516;-78
2023/09/18 23:47:12;;;;;;;4.00;1.15;;;;;;;;;;10524756;28;20448;-78
2023/09/18 23:52:15;;;;;;;2.03;0.77;;;;;;;;;;10525198;28;20540;-78
2023/09/18 23:57:22;;;;;;;2.08;0.90;;;;;;;;;;10539922;28;20434;-78
